createdAt,value
2023-04-02T00:00:11.840Z,67.94
2023-04-02T00:02:54.828Z,68.22
2023-04-02T00:05:24.828Z,68.02
2023-04-02T00:07:54.090Z,67.90
2023-04-02T00:10:46.662Z,67.65
2023-04-02T00:13:13.451Z,68.30
2023-04-02T00:15:43.409Z,68.35
2023-04-02T00:18:16.034Z,68.99
2023-04-02T00:20:48.018Z,69.46
2023-04-02T00:23:16.309Z,70.48
2023-04-02T00:25:44.905Z,70.89
2023-04-02T00:28:30.884Z,70.78
2023-04-02T00:31:00.293Z,71.19
2023-04-02T00:33:30.504Z,70.79
2023-04-02T00:35:57.808Z,70.16
2023-04-02T00:38:31.978Z,70.57
2023-04-02T00:41:05.859Z,70.70
2023-04-02T00:43:36.925Z,70.44
2023-04-02T00:46:11.132Z,69.99
2023-04-02T00:49:07.759Z,69.83
2023-04-02T00:52:08.554Z,69.45
2023-04-02T00:54:48.238Z,69.67
2023-04-02T00:57:19.681Z,69.87
2023-04-02T01:00:00.915Z,70.26
2023-04-02T01:02:33.213Z,70.87
2023-04-02T01:05:03.984Z,71.16
2023-04-02T01:07:54.420Z,71.40
2023-04-02T01:10:47.364Z,71.72
2023-04-02T01:13:31.148Z,71.78
2023-04-02T01:16:24.370Z,71.83
2023-04-02T01:19:04.220Z,71.84
2023-04-02T01:21:39.948Z,71.76
2023-04-02T01:24:13.175Z,72.09
2023-04-02T01:26:52.928Z,71.67
2023-04-02T01:29:25.771Z,71.86
2023-04-02T01:31:55.591Z,71.93
2023-04-02T01:34:26.632Z,73.65
2023-04-02T01:37:08.458Z,73.83
2023-04-02T01:40:13.116Z,74.34
2023-04-02T01:43:17.718Z,74.64
2023-04-02T01:45:44.836Z,73.94
2023-04-02T01:48:18.278Z,73.74
2023-04-02T01:50:47.961Z,73.83
2023-04-02T01:53:17.139Z,73.69
2023-04-02T01:55:51.372Z,73.61
2023-04-02T01:58:22.067Z,73.39
2023-04-02T02:01:08.826Z,73.52
2023-04-02T02:03:36.497Z,72.87
2023-04-02T02:06:05.809Z,72.42
2023-04-02T02:08:32.705Z,72.19
2023-04-02T02:10:59.651Z,71.40
2023-04-02T02:13:26.494Z,71.96
2023-04-02T02:15:57.142Z,71.38
2023-04-02T02:18:24.308Z,70.60
2023-04-02T02:20:52.393Z,71.42
2023-04-02T02:23:21.503Z,71.55
2023-04-02T02:25:48.694Z,71.71
2023-04-02T02:28:21.184Z,72.20
2023-04-02T02:30:52.972Z,71.98
2023-04-02T02:33:56.325Z,72.65
2023-04-02T02:36:47.392Z,72.66
2023-04-02T02:39:26.704Z,72.88
2023-04-02T02:42:01.235Z,72.97
2023-04-02T02:44:33.680Z,73.10
2023-04-02T02:47:05.059Z,73.64
2023-04-02T02:49:40.018Z,73.70
2023-04-02T02:52:09.552Z,74.09
2023-04-02T02:54:40.798Z,73.67
2023-04-02T02:57:12.782Z,73.53
2023-04-02T02:59:40.268Z,73.80
2023-04-02T03:02:07.697Z,73.68
2023-04-02T03:04:35.846Z,73.27
2023-04-02T03:07:04.783Z,73.42
2023-04-02T03:10:09.631Z,73.74
2023-04-02T03:12:42.319Z,74.39
2023-04-02T03:15:32.648Z,75.13
2023-04-02T03:18:05.691Z,75.48
2023-04-02T03:20:46.663Z,76.76
2023-04-02T03:23:37.056Z,77.14
2023-04-02T03:26:19.257Z,76.77
2023-04-02T03:28:54.180Z,76.33
2023-04-02T03:31:31.795Z,76.56
2023-04-02T03:34:10.809Z,76.61
2023-04-02T03:36:54.740Z,76.55
2023-04-02T03:39:35.732Z,76.35
2023-04-02T03:42:21.418Z,75.99
2023-04-02T03:45:12.673Z,76.76
2023-04-02T03:48:31.895Z,76.75
2023-04-02T03:51:06.440Z,76.33
2023-04-02T03:53:34.175Z,76.52
2023-04-02T03:56:04.905Z,76.25
2023-04-02T03:58:41.180Z,75.89
2023-04-02T04:01:29.897Z,75.43
2023-04-02T04:04:06.978Z,74.73
2023-04-02T04:06:35.743Z,74.29
2023-04-02T04:09:23.738Z,75.12
2023-04-02T04:11:57.104Z,75.51
2023-04-02T04:14:38.744Z,75.62
2023-04-02T04:17:16.320Z,75.12
2023-04-02T04:19:54.316Z,75.47
2023-04-02T04:22:29.306Z,75.58
2023-04-02T04:25:18.240Z,74.98
2023-04-02T04:28:04.020Z,74.74
2023-04-02T04:30:40.267Z,75.03
2023-04-02T04:33:16.326Z,74.18
2023-04-02T04:35:53.932Z,74.47
2023-04-02T04:38:37.376Z,75.08
2023-04-02T04:41:14.555Z,74.66
2023-04-02T04:44:04.106Z,75.27
2023-04-02T04:46:52.064Z,75.46
2023-04-02T04:49:47.409Z,76.08
2023-04-02T04:52:29.562Z,76.56
2023-04-02T04:54:56.397Z,75.59
2023-04-02T04:57:36.886Z,75.87
2023-04-02T05:00:06.389Z,74.67
2023-04-02T05:02:41.472Z,74.88
2023-04-02T05:05:19.099Z,74.61
2023-04-02T05:07:51.368Z,73.82
2023-04-02T05:10:48.154Z,72.74
2023-04-02T05:13:23.911Z,72.71
2023-04-02T05:16:07.700Z,72.44
2023-04-02T05:19:01.067Z,72.15
2023-04-02T05:21:41.570Z,72.74
2023-04-02T05:24:42.586Z,72.45
2023-04-02T05:27:36.442Z,71.33
2023-04-02T05:30:25.334Z,70.40
2023-04-02T05:33:00.696Z,71.18
2023-04-02T05:35:34.430Z,70.88
2023-04-02T05:38:02.175Z,71.31
2023-04-02T05:40:38.758Z,71.81
2023-04-02T05:43:10.206Z,72.63
2023-04-02T05:45:40.823Z,71.57
2023-04-02T05:48:38.532Z,71.64
2023-04-02T05:51:09.661Z,72.02
2023-04-02T05:53:52.257Z,71.50
2023-04-02T05:56:44.793Z,70.95
2023-04-02T05:59:19.104Z,70.72
2023-04-02T06:02:07.813Z,70.27
2023-04-02T06:04:43.277Z,69.57
2023-04-02T06:07:21.130Z,69.95
2023-04-02T06:10:11.558Z,69.18
2023-04-02T06:12:42.727Z,69.09
2023-04-02T06:15:14.783Z,68.25
2023-04-02T06:17:50.960Z,67.37
2023-04-02T06:20:19.766Z,66.86
2023-04-02T06:22:53.453Z,65.59
2023-04-02T06:25:35.403Z,65.33
2023-04-02T06:28:06.274Z,65.83
2023-04-02T06:30:37.061Z,65.44
2023-04-02T06:33:04.619Z,64.98
2023-04-02T06:35:34.461Z,63.17
2023-04-02T06:38:05.752Z,63.03
2023-04-02T06:40:50.606Z,63.52
2023-04-02T06:43:36.624Z,63.58
2023-04-02T06:46:14.153Z,63.52
2023-04-02T06:48:44.146Z,63.05
2023-04-02T06:51:14.266Z,62.87
2023-04-02T06:53:44.577Z,62.75
2023-04-02T06:56:44.793Z,62.29
2023-04-02T06:59:11.892Z,62.83
2023-04-02T07:01:53.938Z,60.74
2023-04-02T07:04:21.810Z,61.64
2023-04-02T07:06:48.768Z,60.97
2023-04-02T07:09:22.069Z,60.95
2023-04-02T07:11:48.988Z,61.44
2023-04-02T07:14:16.051Z,60.52
2023-04-02T07:16:46.136Z,60.92
2023-04-02T07:19:23.123Z,60.26
2023-04-02T07:21:50.025Z,60.71
2023-04-02T07:24:16.896Z,60.95
2023-04-02T07:26:43.880Z,60.52
2023-04-02T07:29:15.480Z,60.04
2023-04-02T07:31:42.664Z,59.80
2023-04-02T07:34:10.294Z,58.77
2023-04-02T07:36:37.297Z,58.67
2023-04-02T07:39:04.758Z,58.90
2023-04-02T07:41:31.598Z,57.60
2023-04-02T07:43:58.520Z,58.03
2023-04-02T07:46:25.296Z,58.57
2023-04-02T07:48:52.155Z,58.62
2023-04-02T07:51:25.379Z,57.98
2023-04-02T07:53:52.811Z,58.55
2023-04-02T07:56:21.898Z,59.30
2023-04-02T07:58:49.174Z,59.84
2023-04-02T08:01:26.715Z,59.48
2023-04-02T08:03:55.505Z,59.92
2023-04-02T08:06:24.255Z,59.40
2023-04-02T08:08:51.292Z,60.16
2023-04-02T08:11:18.627Z,59.54
2023-04-02T08:13:46.126Z,59.37
2023-04-02T08:16:13.104Z,59.46
2023-04-02T08:18:40.163Z,59.50
2023-04-02T08:21:08.689Z,60.15
2023-04-02T08:23:36.669Z,58.64
2023-04-02T08:26:05.228Z,59.24
2023-04-02T08:28:32.009Z,58.79
2023-04-02T08:30:58.930Z,59.55
2023-04-02T08:33:26.064Z,58.57
2023-04-02T08:35:53.237Z,58.90
2023-04-02T08:38:21.859Z,58.51
2023-04-02T08:40:54.707Z,59.02
2023-04-02T08:43:27.579Z,58.25
2023-04-02T08:46:07.641Z,59.64
2023-04-02T08:48:40.784Z,58.90
2023-04-02T08:51:22.336Z,59.56
2023-04-02T08:53:49.665Z,58.93
2023-04-02T08:56:27.523Z,58.48
2023-04-02T08:58:57.871Z,58.20
2023-04-02T09:01:45.487Z,58.05
2023-04-02T09:04:20.712Z,58.08
2023-04-02T09:06:49.737Z,58.31
2023-04-02T09:09:17.102Z,57.88
2023-04-02T09:12:02.303Z,57.99
2023-04-02T09:14:56.984Z,57.20
2023-04-02T09:17:26.537Z,57.87
2023-04-02T09:20:07.866Z,57.15
2023-04-02T09:22:35.058Z,56.91
2023-04-02T09:25:04.834Z,56.33
2023-04-02T09:27:34.455Z,56.47
2023-04-02T09:30:12.650Z,56.80
2023-04-02T09:32:45.051Z,57.33
2023-04-02T09:35:39.590Z,59.06
2023-04-02T09:38:17.971Z,58.87
2023-04-02T09:41:05.749Z,58.67
2023-04-02T09:43:36.731Z,58.75
2023-04-02T09:46:23.717Z,58.39
2023-04-02T09:48:55.409Z,57.73
2023-04-02T09:51:31.893Z,58.53
2023-04-02T09:54:04.575Z,57.22
2023-04-02T09:56:36.730Z,56.61
2023-04-02T09:59:12.783Z,56.14
2023-04-02T10:01:56.193Z,56.16
2023-04-02T10:04:39.474Z,56.32
2023-04-02T10:07:39.595Z,57.14
2023-04-02T10:10:47.367Z,56.16
2023-04-02T10:13:19.940Z,55.59
2023-04-02T10:16:08.803Z,54.51
2023-04-02T10:18:53.813Z,54.07
2023-04-02T10:21:29.787Z,54.98
2023-04-02T10:23:57.671Z,54.26
2023-04-02T10:26:55.087Z,53.38
2023-04-02T10:29:27.908Z,53.65
2023-04-02T10:32:08.656Z,54.41
2023-04-02T10:34:58.835Z,54.93
2023-04-02T10:37:37.639Z,55.61
2023-04-02T10:40:40.097Z,54.86
2023-04-02T10:43:39.327Z,55.34
2023-04-02T10:46:12.209Z,55.28
2023-04-02T10:48:57.766Z,57.80
2023-04-02T10:51:39.854Z,58.50
2023-04-02T10:54:17.487Z,58.34
2023-04-02T10:56:51.137Z,59.95
2023-04-02T10:59:30.150Z,62.36
2023-04-02T11:02:02.408Z,62.43
2023-04-02T11:04:45.572Z,62.37
2023-04-02T11:07:21.617Z,64.30
2023-04-02T11:09:52.291Z,62.55
2023-04-02T11:12:46.774Z,61.71
2023-04-02T11:15:18.579Z,63.89
2023-04-02T11:17:46.957Z,63.40
2023-04-02T11:21:01.694Z,63.24
2023-04-02T11:23:34.783Z,61.79
2023-04-02T11:26:33.699Z,61.59
2023-04-02T11:29:26.604Z,60.87
2023-04-02T11:32:21.118Z,57.68
2023-04-02T11:34:56.409Z,57.81
2023-04-02T11:37:33.311Z,57.73
2023-04-02T11:40:41.707Z,59.47
2023-04-02T11:43:33.544Z,61.54
2023-04-02T11:46:17.176Z,61.83
2023-04-02T11:48:47.092Z,61.96
2023-04-02T11:51:22.985Z,61.18
2023-04-02T11:53:54.109Z,59.76
2023-04-02T11:56:52.438Z,59.12
2023-04-02T11:59:56.964Z,57.85
2023-04-02T12:02:42.001Z,57.27
2023-04-02T12:05:16.053Z,57.62
2023-04-02T12:08:31.552Z,58.16
2023-04-02T12:11:06.314Z,57.85
2023-04-02T12:13:42.152Z,56.26
2023-04-02T12:16:11.550Z,55.85
2023-04-02T12:18:53.494Z,56.41
2023-04-02T12:21:24.667Z,58.46
2023-04-02T12:23:56.731Z,62.41
2023-04-02T12:26:33.391Z,69.46
2023-04-02T12:29:15.392Z,72.54
2023-04-02T12:31:46.881Z,75.39
2023-04-02T12:34:19.412Z,75.76
2023-04-02T12:37:27.939Z,74.27
2023-04-02T12:40:04.322Z,73.28
2023-04-02T12:42:36.091Z,70.42
2023-04-02T12:45:05.714Z,69.68
2023-04-02T12:47:33.785Z,66.59
2023-04-02T12:50:02.446Z,66.13
2023-04-02T12:52:29.906Z,65.84
2023-04-02T12:54:59.818Z,66.42
2023-04-02T12:57:26.689Z,63.66
2023-04-02T12:59:58.923Z,62.41
2023-04-02T13:02:32.227Z,62.67
2023-04-02T13:05:01.360Z,62.27
2023-04-02T13:07:34.912Z,61.86
2023-04-02T13:10:22.281Z,61.04
2023-04-02T13:12:54.820Z,61.96
2023-04-02T13:15:28.715Z,62.72
2023-04-02T13:18:17.693Z,64.31
2023-04-02T13:20:55.887Z,62.48
2023-04-02T13:23:31.435Z,62.70
2023-04-02T13:26:11.680Z,62.04
2023-04-02T13:28:38.917Z,61.32
2023-04-02T13:31:05.957Z,61.44
2023-04-02T13:33:32.874Z,61.63
2023-04-02T13:35:59.719Z,60.89
2023-04-02T13:38:26.550Z,60.54
2023-04-02T13:40:53.585Z,59.49
2023-04-02T13:43:20.919Z,57.75
2023-04-02T13:45:51.983Z,55.94
2023-04-02T13:48:22.457Z,54.87
2023-04-02T13:50:49.365Z,56.29
2023-04-02T13:53:29.737Z,60.71
2023-04-02T13:55:57.023Z,63.76
2023-04-02T14:01:08.170Z,62.31
2023-04-02T14:03:35.028Z,62.06
2023-04-02T14:06:12.611Z,64.11
2023-04-02T14:09:16.270Z,62.42
2023-04-02T14:12:14.458Z,63.46
2023-04-02T14:14:55.236Z,64.62
2023-04-02T14:17:59.487Z,65.87
2023-04-02T14:20:55.348Z,66.29
2023-04-02T14:23:45.991Z,66.44
2023-04-02T14:26:29.243Z,67.19
2023-04-02T14:29:11.304Z,67.34
2023-04-02T14:31:41.011Z,67.34
2023-04-02T14:34:35.334Z,66.99
2023-04-02T14:37:08.046Z,66.76
2023-04-02T14:39:40.788Z,65.72
2023-04-02T14:42:13.746Z,65.68
2023-04-02T14:44:50.743Z,66.10
2023-04-02T14:47:24.408Z,64.71
2023-04-02T14:49:57.329Z,65.81
2023-04-02T14:52:27.044Z,65.13
2023-04-02T14:55:00.405Z,64.95
2023-04-02T14:57:34.246Z,64.64
2023-04-02T15:00:27.438Z,65.79
2023-04-02T15:03:03.303Z,65.93
2023-04-02T15:05:56.317Z,65.57
2023-04-02T15:08:28.691Z,66.85
2023-04-02T15:11:31.051Z,68.38
2023-04-02T15:14:05.927Z,68.50
2023-04-02T15:16:33.274Z,67.71
2023-04-02T15:19:10.816Z,68.64
2023-04-02T15:22:02.183Z,69.26
2023-04-02T15:25:13.517Z,68.77
2023-04-02T15:28:31.739Z,70.40
2023-04-02T15:31:15.637Z,71.88
2023-04-02T15:34:12.269Z,71.41
2023-04-02T15:37:01.495Z,71.64
2023-04-02T15:39:43.362Z,71.11
2023-04-02T15:42:19.208Z,71.56
2023-04-02T15:45:17.793Z,71.66
2023-04-02T15:48:01.995Z,71.44
2023-04-02T15:50:49.861Z,71.46
2023-04-02T15:53:37.736Z,72.11
2023-04-02T15:56:08.934Z,71.83
2023-04-02T15:58:44.880Z,72.03
2023-04-02T16:01:45.562Z,72.46
2023-04-02T16:04:36.910Z,73.44
2023-04-02T16:07:24.287Z,73.79
2023-04-02T16:09:51.162Z,74.66
2023-04-02T16:12:20.339Z,75.63
2023-04-02T16:14:49.421Z,77.08
2023-04-02T16:17:31.043Z,77.93
2023-04-02T16:20:06.493Z,78.85
2023-04-02T16:22:37.286Z,77.43
2023-04-02T16:25:18.264Z,76.92
2023-04-02T16:27:51.269Z,77.30
2023-04-02T16:30:33.455Z,77.63
2023-04-02T16:33:17.570Z,78.95
2023-04-02T16:36:10.625Z,80.21
2023-04-02T16:38:46.511Z,80.65
2023-04-02T16:41:25.726Z,81.00
2023-04-02T16:43:58.675Z,79.51
2023-04-02T16:46:39.591Z,79.30
2023-04-02T16:49:34.178Z,79.99
2023-04-02T16:52:10.541Z,80.54
2023-04-02T16:55:14.012Z,81.18
2023-04-02T16:58:22.650Z,82.27
2023-04-02T17:00:57.582Z,83.84
2023-04-02T17:03:58.242Z,83.64
2023-04-02T17:06:44.363Z,86.08
2023-04-02T17:09:23.883Z,86.68
2023-04-02T17:12:13.864Z,87.56
2023-04-02T17:14:54.335Z,88.86
2023-04-02T17:17:23.061Z,90.62
2023-04-02T17:19:56.390Z,91.28
2023-04-02T17:22:24.963Z,92.05
2023-04-02T17:24:58.391Z,92.80
2023-04-02T17:27:37.455Z,94.83
2023-04-02T17:30:22.085Z,95.80
2023-04-02T17:32:49.213Z,96.11
2023-04-02T17:35:18.238Z,96.91
2023-04-02T17:38:01.353Z,96.91
2023-04-02T17:40:51.584Z,96.41
2023-04-02T17:43:34.549Z,97.11
2023-04-02T17:46:30.467Z,97.26
2023-04-02T17:49:22.104Z,97.09
2023-04-02T17:52:10.580Z,97.63
2023-04-02T17:55:22.010Z,97.03
2023-04-02T17:58:14.489Z,97.74
2023-04-02T18:01:07.264Z,97.27
2023-04-02T18:03:59.178Z,97.85
2023-04-02T18:06:58.893Z,97.81
2023-04-02T18:09:50.434Z,97.33
2023-04-02T18:12:42.073Z,97.31
2023-04-02T18:15:38.980Z,96.77
2023-04-02T18:18:30.464Z,95.49
2023-04-02T18:21:20.541Z,96.20
2023-04-02T18:24:18.046Z,96.11
2023-04-02T18:27:07.919Z,95.48
2023-04-02T18:29:58.534Z,95.36
2023-04-02T18:32:40.558Z,94.36
2023-04-02T18:35:31.828Z,96.06
2023-04-02T18:38:18.474Z,96.78
2023-04-02T18:41:11.735Z,97.13
2023-04-02T18:43:57.323Z,97.58
2023-04-02T18:46:54.926Z,97.91
2023-04-02T18:49:45.927Z,98.06
2023-04-02T18:52:16.051Z,97.44
2023-04-02T18:55:04.124Z,97.31
2023-04-02T18:57:36.130Z,95.59
2023-04-02T19:00:06.456Z,95.49
2023-04-02T19:02:39.250Z,94.83
2023-04-02T19:05:20.732Z,93.68
2023-04-02T19:07:55.205Z,94.01
2023-04-02T19:10:34.386Z,92.97
2023-04-02T19:13:01.474Z,94.39
2023-04-02T19:15:43.600Z,94.92
2023-04-02T19:18:31.027Z,94.62
2023-04-02T19:21:04.647Z,95.49
2023-04-02T19:24:00.601Z,96.23
2023-04-02T19:26:47.710Z,95.91
2023-04-02T19:29:20.321Z,94.30
2023-04-02T19:32:02.558Z,93.53
2023-04-02T19:34:45.633Z,92.34
2023-04-02T19:37:33.834Z,90.74
2023-04-02T19:40:12.641Z,89.73
2023-04-02T19:42:51.456Z,89.43
2023-04-02T19:45:31.572Z,89.06
2023-04-02T19:48:03.736Z,87.84
2023-04-02T19:50:30.736Z,88.01
2023-04-02T19:53:01.584Z,86.94
2023-04-02T19:55:31.690Z,87.16
2023-04-02T19:58:12.578Z,86.05
2023-04-02T20:00:44.414Z,86.06
2023-04-02T20:03:11.522Z,85.12
2023-04-02T20:05:38.738Z,85.10
2023-04-02T20:08:08.757Z,84.75
2023-04-02T20:10:35.986Z,85.15
2023-04-02T20:13:06.491Z,84.88
2023-04-02T20:15:33.973Z,84.24
2023-04-02T20:18:01.508Z,85.15
2023-04-02T20:20:28.516Z,84.60
2023-04-02T20:22:55.606Z,84.85
2023-04-02T20:25:22.599Z,84.27
2023-04-02T20:27:49.583Z,84.32
2023-04-02T20:30:21.492Z,84.80
2023-04-02T20:32:48.502Z,85.10
2023-04-02T20:35:15.443Z,85.06
2023-04-02T20:37:42.278Z,85.43
2023-04-02T20:40:09.744Z,87.06
2023-04-02T20:42:36.780Z,86.90
2023-04-02T20:45:03.961Z,87.01
2023-04-02T20:47:30.837Z,86.20
2023-04-02T20:50:00.421Z,86.19
2023-04-02T20:52:27.555Z,87.80
2023-04-02T20:54:54.438Z,87.00
2023-04-02T20:57:21.309Z,86.92
2023-04-02T20:59:48.317Z,86.16
2023-04-02T21:02:15.149Z,87.67
2023-04-02T21:04:42.035Z,88.78
2023-04-02T21:07:08.867Z,91.02
2023-04-02T21:09:35.825Z,90.10
2023-04-02T21:12:02.579Z,88.72
2023-04-02T21:14:29.500Z,88.33
2023-04-02T21:16:56.604Z,88.24
2023-04-02T21:19:23.450Z,87.39
2023-04-02T21:21:50.250Z,88.08
2023-04-02T21:24:17.095Z,87.91
2023-04-02T21:26:43.944Z,89.49
2023-04-02T21:29:11.796Z,90.06
2023-04-02T21:31:40.394Z,89.53
2023-04-02T21:34:09.984Z,89.78
2023-04-02T21:36:40.593Z,90.18
2023-04-02T21:39:10.664Z,90.61
2023-04-02T21:41:43.470Z,90.26
2023-04-02T21:44:14.158Z,88.41
2023-04-02T21:46:42.208Z,86.05
2023-04-02T21:49:14.112Z,86.87
2023-04-02T21:51:42.665Z,86.93
2023-04-02T21:54:10.060Z,87.08
2023-04-02T21:56:41.652Z,87.42
2023-04-02T21:59:10.120Z,88.21
2023-04-02T22:01:39.988Z,87.88
2023-04-02T22:04:08.799Z,88.30
2023-04-02T22:06:41.275Z,88.01
2023-04-02T22:09:14.296Z,88.52
2023-04-02T22:11:49.198Z,88.71
2023-04-02T22:14:16.046Z,87.71
2023-04-02T22:16:43.841Z,87.58
2023-04-02T22:19:13.856Z,87.23
2023-04-02T22:21:41.305Z,87.44
2023-04-02T22:24:11.504Z,87.05
2023-04-02T22:26:38.746Z,87.31
2023-04-02T22:29:05.679Z,86.53
2023-04-02T22:31:33.587Z,85.92
2023-04-02T22:34:01.781Z,85.31
2023-04-02T22:36:29.812Z,85.27
2023-04-02T22:38:57.978Z,84.45
2023-04-02T22:41:27.191Z,84.04
2023-04-02T22:43:55.736Z,84.05
2023-04-02T22:46:24.649Z,84.58
2023-04-02T22:48:51.703Z,82.67
2023-04-02T22:51:21.061Z,75.53
2023-04-02T22:53:48.598Z,79.22
2023-04-02T22:56:18.550Z,79.08
2023-04-02T22:58:45.892Z,80.31
2023-04-02T23:01:23.959Z,78.76
2023-04-02T23:03:53.583Z,79.89
2023-04-02T23:06:20.466Z,80.31
2023-04-02T23:08:47.878Z,79.82
2023-04-02T23:11:20.673Z,79.58
2023-04-02T23:13:49.804Z,81.03
2023-04-02T23:16:17.603Z,81.18
2023-04-02T23:18:45.627Z,80.66
2023-04-02T23:21:12.447Z,81.40
2023-04-02T23:23:39.282Z,82.00
2023-04-02T23:26:11.883Z,81.73
2023-04-02T23:28:40.078Z,80.80
2023-04-02T23:31:08.755Z,81.48
2023-04-02T23:33:35.642Z,80.74
2023-04-02T23:36:10.841Z,80.28
2023-04-02T23:38:37.666Z,80.88
2023-04-02T23:41:04.652Z,81.48
2023-04-02T23:43:31.728Z,81.51
2023-04-02T23:45:58.715Z,81.71
2023-04-02T23:48:25.486Z,81.94
2023-04-02T23:50:52.351Z,82.60
2023-04-02T23:53:19.221Z,83.10
2023-04-02T23:55:46.078Z,83.42
2023-04-02T23:58:12.988Z,83.78
